createdAt,value
2022-11-26T00:00:47.111Z,101494.84
2022-11-26T00:03:29.890Z,101497.53
2022-11-26T00:05:57.426Z,101502.50
2022-11-26T00:08:34.711Z,101501.00
2022-11-26T00:11:01.976Z,101499.38
2022-11-26T00:13:30.301Z,101492.19
2022-11-26T00:15:56.988Z,101504.66
2022-11-26T00:18:25.806Z,101497.88
2022-11-26T00:20:58.972Z,101500.09
2022-11-26T00:23:27.695Z,101507.16
2022-11-26T00:25:57.527Z,101511.88
2022-11-26T00:28:23.674Z,101514.69
2022-11-26T00:30:50.183Z,101517.78
2022-11-26T00:33:16.204Z,101517.78
2022-11-26T00:35:42.644Z,101519.94
2022-11-26T00:38:15.968Z,101520.63
2022-11-26T00:40:42.493Z,101517.81
2022-11-26T00:43:13.167Z,101506.38
2022-11-26T00:45:39.913Z,101509.81
2022-11-26T00:48:06.223Z,101514.38
2022-11-26T00:50:38.210Z,101519.56
2022-11-26T00:53:05.704Z,101524.28
2022-11-26T00:55:44.393Z,101524.59
2022-11-26T00:58:26.288Z,101519.31
2022-11-26T01:00:55.004Z,101514.28
2022-11-26T01:03:21.498Z,101525.97
2022-11-26T01:05:56.659Z,101525.13
2022-11-26T01:08:40.957Z,101528.53
2022-11-26T01:11:11.934Z,101522.06
2022-11-26T01:13:38.127Z,101517.59
2022-11-26T01:16:15.573Z,101531.81
2022-11-26T01:18:41.720Z,101529.66
2022-11-26T01:21:11.272Z,101539.94
2022-11-26T01:23:38.369Z,101542.81
2022-11-26T01:26:06.679Z,101532.06
2022-11-26T01:28:32.898Z,101536.81
2022-11-26T01:30:59.245Z,101535.63
2022-11-26T01:33:25.335Z,101545.00
2022-11-26T01:35:51.707Z,101538.13
2022-11-26T01:38:17.917Z,101535.94
2022-11-26T01:41:00.257Z,101539.31
2022-11-26T01:43:31.984Z,101546.09
2022-11-26T01:45:58.571Z,101534.88
2022-11-26T01:48:33.391Z,101533.38
2022-11-26T01:51:08.097Z,101541.88
2022-11-26T01:54:00.376Z,101545.66
2022-11-26T01:56:41.473Z,101534.03
2022-11-26T01:59:18.439Z,101547.91
2022-11-26T02:01:45.191Z,101549.88
2022-11-26T02:04:16.627Z,101537.91
2022-11-26T02:06:46.046Z,101550.09
2022-11-26T02:09:12.291Z,101549.22
2022-11-26T02:11:39.392Z,101548.25
2022-11-26T02:14:09.824Z,101557.94
2022-11-26T02:16:39.142Z,101551.03
2022-11-26T02:19:21.646Z,101550.81
2022-11-26T02:21:55.552Z,101551.69
2022-11-26T02:24:45.277Z,101554.59
2022-11-26T02:27:17.957Z,101545.00
2022-11-26T02:29:56.230Z,101553.31
2022-11-26T02:32:29.391Z,101544.16
2022-11-26T02:35:03.901Z,101541.78
2022-11-26T02:37:47.695Z,101553.66
2022-11-26T02:40:14.603Z,101550.09
2022-11-26T02:42:41.573Z,101548.69
2022-11-26T02:45:13.725Z,101550.75
2022-11-26T02:47:44.160Z,101556.00
2022-11-26T02:50:18.179Z,101551.03
2022-11-26T02:52:48.292Z,101551.03
2022-11-26T02:55:16.006Z,101564.63
2022-11-26T02:57:47.054Z,101567.13
2022-11-26T03:00:14.712Z,101563.88
2022-11-26T03:02:53.707Z,101567.53
2022-11-26T03:05:20.393Z,101570.13
2022-11-26T03:07:50.794Z,101578.44
2022-11-26T03:10:19.528Z,101578.88
2022-11-26T03:12:46.815Z,101590.63
2022-11-26T03:15:13.096Z,101586.84
2022-11-26T03:17:39.517Z,101584.03
2022-11-26T03:20:06.517Z,101580.78
2022-11-26T03:22:33.100Z,101588.22
2022-11-26T03:24:59.249Z,101585.97
2022-11-26T03:27:25.656Z,101593.81
2022-11-26T03:29:51.779Z,101595.44
2022-11-26T03:32:18.193Z,101594.38
2022-11-26T03:34:44.260Z,101603.66
2022-11-26T03:37:10.817Z,101609.28
2022-11-26T03:39:36.947Z,101605.72
2022-11-26T03:42:03.513Z,101609.81
2022-11-26T03:44:29.655Z,101622.97
2022-11-26T03:46:56.001Z,101621.66
2022-11-26T03:49:22.069Z,101622.22
2022-11-26T03:51:48.466Z,101615.75
2022-11-26T03:54:14.752Z,101620.91
2022-11-26T03:56:41.195Z,101631.59
2022-11-26T03:59:07.356Z,101623.94
2022-11-26T04:01:33.873Z,101620.06
2022-11-26T04:04:00.092Z,101629.97
2022-11-26T04:06:26.454Z,101629.53
2022-11-26T04:08:52.652Z,101632.78
2022-11-26T04:11:19.122Z,101627.28
2022-11-26T04:13:45.258Z,101632.25
2022-11-26T04:16:11.812Z,101637.53
2022-11-26T04:18:37.992Z,101628.16
2022-11-26T04:21:07.470Z,101640.75
2022-11-26T04:23:34.737Z,101642.28
2022-11-26T04:26:01.376Z,101641.50
2022-11-26T04:28:28.703Z,101641.19
2022-11-26T04:30:55.082Z,101645.50
2022-11-26T04:33:21.265Z,101649.50
2022-11-26T04:35:49.699Z,101644.31
2022-11-26T04:38:15.861Z,101653.81
2022-11-26T04:40:42.670Z,101655.19
2022-11-26T04:43:09.017Z,101658.44
2022-11-26T04:45:35.411Z,101659.53
2022-11-26T04:48:01.671Z,101663.84
2022-11-26T04:50:28.164Z,101674.28
2022-11-26T04:52:54.256Z,101662.09
2022-11-26T04:55:20.660Z,101667.38
2022-11-26T04:57:47.864Z,101684.09
2022-11-26T05:00:15.995Z,101668.25
2022-11-26T05:02:42.428Z,101673.13
2022-11-26T05:05:09.218Z,101675.25
2022-11-26T05:07:35.609Z,101678.91
2022-11-26T05:10:05.698Z,101680.53
2022-11-26T05:12:31.953Z,101687.09
2022-11-26T05:14:58.359Z,101685.81
2022-11-26T05:17:24.474Z,101695.09
2022-11-26T05:19:50.870Z,101702.88
2022-11-26T05:22:17.052Z,101698.75
2022-11-26T05:24:43.564Z,101709.00
2022-11-26T05:27:09.807Z,101713.09
2022-11-26T05:29:36.368Z,101710.81
2022-11-26T05:32:02.686Z,101722.31
2022-11-26T05:34:29.525Z,101714.22
2022-11-26T05:36:55.865Z,101726.63
2022-11-26T05:39:22.423Z,101726.97
2022-11-26T05:41:48.606Z,101728.25
2022-11-26T05:44:15.203Z,101723.53
2022-11-26T05:46:42.516Z,101723.72
2022-11-26T05:49:09.312Z,101723.06
2022-11-26T05:51:35.523Z,101726.72
2022-11-26T05:54:02.647Z,101728.56
2022-11-26T05:56:29.153Z,101729.13
2022-11-26T05:58:55.752Z,101734.72
2022-11-26T06:01:22.183Z,101741.84
2022-11-26T06:03:48.846Z,101733.13
2022-11-26T06:06:15.162Z,101732.56
2022-11-26T06:08:41.646Z,101746.94
2022-11-26T06:11:11.706Z,101747.81
2022-11-26T06:13:39.008Z,101742.72
2022-11-26T06:16:05.667Z,101751.47
2022-11-26T06:18:32.094Z,101751.78
2022-11-26T06:21:03.120Z,101760.84
2022-11-26T06:23:31.375Z,101754.88
2022-11-26T06:25:57.657Z,101770.25
2022-11-26T06:28:24.118Z,101768.63
2022-11-26T06:30:50.525Z,101769.22
2022-11-26T06:33:17.206Z,101777.31
2022-11-26T06:35:43.527Z,101780.09
2022-11-26T06:38:10.329Z,101783.91
2022-11-26T06:40:36.754Z,101790.47
2022-11-26T06:43:03.280Z,101793.38
2022-11-26T06:45:30.247Z,101795.97
2022-11-26T06:47:57.106Z,101803.38
2022-11-26T06:50:23.233Z,101812.34
2022-11-26T06:52:53.791Z,101816.09
2022-11-26T06:55:21.204Z,101819.25
2022-11-26T06:57:51.837Z,101826.00
2022-11-26T07:00:18.522Z,101834.34
2022-11-26T07:02:45.982Z,101826.94
2022-11-26T07:05:13.114Z,101829.94
2022-11-26T07:07:40.044Z,101835.97
2022-11-26T07:10:07.565Z,101839.75
2022-11-26T07:12:34.065Z,101843.44
2022-11-26T07:15:00.603Z,101846.00
2022-11-26T07:17:28.127Z,101854.84
2022-11-26T07:19:55.160Z,101862.50
2022-11-26T07:22:22.215Z,101863.91
2022-11-26T07:24:48.662Z,101876.34
2022-11-26T07:27:15.113Z,101866.88
2022-11-26T07:29:41.840Z,101874.41
2022-11-26T07:32:08.525Z,101881.91
2022-11-26T07:34:35.196Z,101887.41
2022-11-26T07:37:01.849Z,101886.25
2022-11-26T07:39:28.239Z,101895.34
2022-11-26T07:41:54.974Z,101889.31
2022-11-26T07:44:21.371Z,101900.38
2022-11-26T07:46:47.996Z,101901.47
2022-11-26T07:49:14.213Z,101910.72
2022-11-26T07:51:41.370Z,101906.66
2022-11-26T07:54:07.889Z,101911.47
2022-11-26T07:56:35.114Z,101903.59
2022-11-26T07:59:01.870Z,101917.50
2022-11-26T08:01:29.142Z,101918.78
2022-11-26T08:03:56.688Z,101923.97
2022-11-26T08:06:28.193Z,101927.66
2022-11-26T08:08:55.251Z,101924.34
2022-11-26T08:11:24.487Z,101924.03
2022-11-26T08:13:59.693Z,101921.50
2022-11-26T08:16:29.119Z,101914.94
2022-11-26T08:18:57.884Z,101921.75
2022-11-26T08:21:25.469Z,101922.81
2022-11-26T08:23:53.390Z,101925.31
2022-11-26T08:26:25.103Z,101933.81
2022-11-26T08:28:58.233Z,101937.53
2022-11-26T08:31:26.790Z,101940.31
2022-11-26T08:33:56.777Z,101936.72
2022-11-26T08:36:23.429Z,101937.59
2022-11-26T08:38:50.079Z,101950.00
2022-11-26T08:41:16.863Z,101946.44
2022-11-26T08:46:30.612Z,101947.41
2022-11-26T08:48:57.730Z,101947.72
2022-11-26T08:51:24.696Z,101947.91
2022-11-26T08:53:51.207Z,101947.66
2022-11-26T08:56:17.976Z,101957.22
2022-11-26T08:58:45.107Z,101952.91
2022-11-26T09:01:13.948Z,101963.75
2022-11-26T09:03:40.309Z,101961.00
2022-11-26T09:06:08.017Z,101965.88
2022-11-26T09:08:55.466Z,101967.31
2022-11-26T09:11:22.993Z,101971.28
2022-11-26T09:13:49.164Z,101978.84
2022-11-26T09:16:19.943Z,101978.19
2022-11-26T09:18:50.651Z,101969.19
2022-11-26T09:21:18.794Z,101979.75
2022-11-26T09:23:46.432Z,101981.34
2022-11-26T09:26:13.357Z,101983.75
2022-11-26T09:28:42.075Z,101980.09
2022-11-26T09:31:16.976Z,101994.19
2022-11-26T09:33:55.135Z,101985.88
2022-11-26T09:36:22.076Z,101985.22
2022-11-26T09:38:48.269Z,101980.34
2022-11-26T09:41:33.243Z,101988.88
2022-11-26T09:44:18.188Z,101997.75
2022-11-26T09:47:13.589Z,102005.13
2022-11-26T09:50:16.823Z,102002.06
2022-11-26T09:53:03.583Z,102000.53
2022-11-26T09:55:53.525Z,101998.84
2022-11-26T09:58:26.989Z,102003.03
2022-11-26T10:00:59.388Z,102011.66
2022-11-26T10:03:37.175Z,102007.13
2022-11-26T10:06:29.247Z,102017.88
2022-11-26T10:09:16.257Z,102013.47
2022-11-26T10:12:24.920Z,102017.28
2022-11-26T10:15:19.850Z,102016.44
2022-11-26T10:18:17.379Z,102009.81
2022-11-26T10:21:02.075Z,102023.22
2022-11-26T10:23:44.815Z,102019.94
2022-11-26T10:26:23.296Z,102023.50
2022-11-26T10:28:59.048Z,102018.88
2022-11-26T10:31:30.480Z,102031.41
2022-11-26T10:34:04.389Z,102021.00
2022-11-26T10:36:38.641Z,102023.69
2022-11-26T10:39:06.644Z,102030.47
2022-11-26T10:41:35.283Z,102043.69
2022-11-26T10:44:34.055Z,102034.63
2022-11-26T10:47:20.979Z,102036.38
2022-11-26T10:49:48.757Z,102036.13
2022-11-26T10:52:20.277Z,102038.56
2022-11-26T10:54:46.689Z,102030.63
2022-11-26T10:57:21.179Z,102032.66
2022-11-26T10:59:51.343Z,102036.56
2022-11-26T11:02:38.765Z,102039.16
2022-11-26T11:05:08.301Z,102041.00
2022-11-26T11:07:37.955Z,102039.72
2022-11-26T11:10:07.719Z,102039.19
2022-11-26T11:12:35.721Z,102044.78
2022-11-26T11:15:17.260Z,102052.56
2022-11-26T11:17:45.762Z,102051.31
2022-11-26T11:20:15.249Z,102055.06
2022-11-26T11:22:43.790Z,102056.03
2022-11-26T11:25:24.599Z,102055.66
2022-11-26T11:27:53.810Z,102058.13
2022-11-26T11:30:24.846Z,102058.03
2022-11-26T11:32:56.644Z,102068.06
2022-11-26T11:35:30.342Z,102058.72
2022-11-26T11:37:58.092Z,102071.09
2022-11-26T11:40:28.413Z,102066.78
2022-11-26T11:43:06.354Z,102060.97
2022-11-26T11:45:34.196Z,102065.56
2022-11-26T11:48:15.640Z,102068.06
2022-11-26T11:50:49.477Z,102068.16
2022-11-26T11:53:32.586Z,102070.97
2022-11-26T11:56:16.751Z,102074.44
2022-11-26T11:59:07.971Z,102074.44
2022-11-26T12:02:00.168Z,102079.03
2022-11-26T12:04:48.674Z,102088.38
2022-11-26T12:07:51.943Z,102086.97
2022-11-26T12:10:35.765Z,102093.38
2022-11-26T12:13:06.381Z,102076.19
2022-11-26T12:15:54.647Z,102089.44
2022-11-26T12:18:46.065Z,102079.56
2022-11-26T12:21:15.716Z,102086.94
2022-11-26T12:23:56.148Z,102088.22
2022-11-26T12:26:42.054Z,102085.16
2022-11-26T12:29:41.213Z,102083.91
2022-11-26T12:32:16.641Z,102080.13
2022-11-26T12:34:52.086Z,102079.59
2022-11-26T12:37:23.495Z,102092.75
2022-11-26T12:40:07.338Z,102087.13
2022-11-26T12:42:48.743Z,102083.75
2022-11-26T12:45:38.268Z,102086.84
2022-11-26T12:48:41.707Z,102093.13
2022-11-26T12:51:19.784Z,102086.84
2022-11-26T12:54:04.589Z,102103.75
2022-11-26T12:56:33.989Z,102099.31
2022-11-26T12:59:17.566Z,102097.34
2022-11-26T13:01:44.008Z,102099.03
2022-11-26T13:07:03.265Z,102101.34
2022-11-26T13:10:00.406Z,102113.31
2022-11-26T13:12:41.752Z,102102.06
2022-11-26T13:15:57.784Z,102110.81
2022-11-26T13:18:38.120Z,102115.81
2022-11-26T13:21:38.564Z,102116.19
2022-11-26T13:24:04.913Z,102112.97
2022-11-26T13:26:53.495Z,102113.53
2022-11-26T13:29:35.152Z,102116.03
2022-11-26T13:32:26.568Z,102118.34
2022-11-26T13:34:55.714Z,102120.22
2022-11-26T13:37:24.968Z,102118.94
2022-11-26T13:40:06.517Z,102125.94
2022-11-26T13:42:52.457Z,102128.06
2022-11-26T13:45:43.244Z,102133.09
2022-11-26T13:48:19.967Z,102127.00
2022-11-26T13:50:58.999Z,102132.31
2022-11-26T13:53:42.248Z,102129.53
2022-11-26T13:56:10.863Z,102140.13
2022-11-26T13:58:51.403Z,102134.25
2022-11-26T14:01:36.161Z,102147.16
2022-11-26T14:04:07.104Z,102140.59
2022-11-26T14:06:34.440Z,102135.69
2022-11-26T14:09:01.115Z,102142.31
2022-11-26T14:11:39.845Z,102137.94
2022-11-26T14:14:24.618Z,102147.19
2022-11-26T14:17:12.782Z,102141.31
2022-11-26T14:19:39.272Z,102148.59
2022-11-26T14:22:33.470Z,102154.53
2022-11-26T14:25:42.877Z,102161.81
2022-11-26T14:28:09.168Z,102150.94
2022-11-26T14:30:35.738Z,102151.69
2022-11-26T14:33:11.148Z,102159.88
2022-11-26T14:35:39.191Z,102169.34
2022-11-26T14:38:21.584Z,102164.19
2022-11-26T14:41:00.887Z,102170.94
2022-11-26T14:43:28.293Z,102163.13
2022-11-26T14:46:15.769Z,102165.72
2022-11-26T14:48:45.703Z,102180.41
2022-11-26T14:51:22.383Z,102174.63
2022-11-26T14:53:50.123Z,102176.09
2022-11-26T14:56:19.191Z,102175.63
2022-11-26T14:58:51.028Z,102186.44
2022-11-26T15:01:23.789Z,102186.84
2022-11-26T15:03:54.658Z,102187.63
2022-11-26T15:06:42.212Z,102195.50
2022-11-26T15:09:15.756Z,102192.44
2022-11-26T15:11:47.406Z,102196.56
2022-11-26T15:14:25.906Z,102196.88
2022-11-26T15:16:55.934Z,102201.59
2022-11-26T15:19:22.773Z,102194.91
2022-11-26T15:21:51.395Z,102191.06
2022-11-26T15:24:17.772Z,102195.38
2022-11-26T15:26:45.852Z,102191.44
2022-11-26T15:29:35.901Z,102196.94
2022-11-26T15:32:03.925Z,102195.88
2022-11-26T15:34:32.209Z,102199.44
2022-11-26T15:36:59.317Z,102203.47
2022-11-26T15:39:30.636Z,102203.88
2022-11-26T15:42:03.279Z,102203.19
2022-11-26T15:44:31.254Z,102201.25
2022-11-26T15:47:00.186Z,102191.53
2022-11-26T15:49:39.592Z,102194.72
2022-11-26T15:52:10.760Z,102199.81
2022-11-26T15:57:32.182Z,102202.22
2022-11-26T16:00:27.587Z,102210.31
2022-11-26T16:02:54.342Z,102209.56
2022-11-26T16:05:38.118Z,102209.06
2022-11-26T16:08:22.552Z,102207.19
2022-11-26T16:10:57.045Z,102208.19
2022-11-26T16:13:31.860Z,102209.91
2022-11-26T16:16:09.556Z,102213.41
2022-11-26T16:18:53.274Z,102219.28
2022-11-26T16:21:23.614Z,102221.88
2022-11-26T16:24:04.841Z,102221.19
2022-11-26T16:26:53.123Z,102219.84
2022-11-26T16:29:19.594Z,102219.06
2022-11-26T16:31:46.719Z,102221.50
2022-11-26T16:34:13.119Z,102226.72
2022-11-26T16:36:41.520Z,102228.19
2022-11-26T16:39:10.998Z,102235.31
2022-11-26T16:41:38.628Z,102232.72
2022-11-26T16:44:05.129Z,102233.47
2022-11-26T16:46:35.254Z,102226.25
2022-11-26T16:49:03.984Z,102233.78
2022-11-26T16:51:30.368Z,102234.63
2022-11-26T16:53:57.053Z,102232.22
2022-11-26T16:56:36.704Z,102235.22
2022-11-26T16:59:18.665Z,102230.31
2022-11-26T17:01:45.175Z,102222.78
2022-11-26T17:04:13.153Z,102238.09
2022-11-26T17:06:40.621Z,102224.41
2022-11-26T17:09:16.942Z,102227.31
2022-11-26T17:11:43.432Z,102245.25
2022-11-26T17:14:10.945Z,102236.28
2022-11-26T17:16:39.596Z,102240.50
2022-11-26T17:19:13.694Z,102245.31
2022-11-26T17:21:41.378Z,102250.81
2022-11-26T17:24:08.151Z,102234.72
2022-11-26T17:26:34.544Z,102244.94
2022-11-26T17:29:01.499Z,102249.84
2022-11-26T17:31:29.070Z,102256.22
2022-11-26T17:33:57.190Z,102251.31
2022-11-26T17:36:23.754Z,102256.78
2022-11-26T17:38:50.953Z,102256.50
2022-11-26T17:41:18.969Z,102263.56
2022-11-26T17:43:45.648Z,102266.06
2022-11-26T17:46:18.544Z,102268.75
2022-11-26T17:48:46.447Z,102263.66
2022-11-26T17:51:15.311Z,102257.00
2022-11-26T17:53:43.277Z,102257.19
2022-11-26T17:56:17.822Z,102262.59
2022-11-26T17:58:46.723Z,102267.13
2022-11-26T18:01:15.467Z,102269.81
2022-11-26T18:03:42.973Z,102269.13
2022-11-26T18:06:33.751Z,102269.91
2022-11-26T18:09:00.371Z,102258.25
2022-11-26T18:11:52.058Z,102257.56
2022-11-26T18:14:20.873Z,102263.66
2022-11-26T18:16:47.737Z,102270.41
2022-11-26T18:19:18.079Z,102270.50
2022-11-26T18:21:45.310Z,102268.19
2022-11-26T18:24:13.184Z,102279.94
2022-11-26T18:26:40.031Z,102270.50
2022-11-26T18:29:07.302Z,102275.59
2022-11-26T18:31:39.086Z,102274.94
2022-11-26T18:34:08.209Z,102283.13
2022-11-26T18:36:34.558Z,102275.31
2022-11-26T18:39:03.710Z,102270.88
2022-11-26T18:41:30.679Z,102271.84
2022-11-26T18:43:57.438Z,102273.94
2022-11-26T18:46:23.871Z,102270.28
2022-11-26T18:48:50.512Z,102277.81
2022-11-26T18:51:17.984Z,102262.66
2022-11-26T18:53:44.767Z,102271.25
2022-11-26T18:56:14.863Z,102270.47
2022-11-26T18:58:45.559Z,102275.19
2022-11-26T19:01:16.748Z,102273.56
2022-11-26T19:03:44.470Z,102280.22
2022-11-26T19:06:16.696Z,102280.59
2022-11-26T19:08:44.064Z,102272.22
2022-11-26T19:11:13.285Z,102271.06
2022-11-26T19:13:40.243Z,102278.09
2022-11-26T19:16:13.034Z,102281.28
2022-11-26T19:18:44.244Z,102284.47
2022-11-26T19:21:24.470Z,102279.56
2022-11-26T19:23:52.758Z,102287.84
2022-11-26T19:26:20.147Z,102294.41
2022-11-26T19:28:47.084Z,102296.50
2022-11-26T19:31:16.276Z,102291.78
2022-11-26T19:33:45.847Z,102304.03
2022-11-26T19:36:15.619Z,102307.50
2022-11-26T19:38:45.058Z,102305.41
2022-11-26T19:41:12.689Z,102306.66
2022-11-26T19:43:41.691Z,102306.53
2022-11-26T19:46:13.964Z,102300.97
2022-11-26T19:48:42.890Z,102305.78
2022-11-26T19:51:10.931Z,102308.47
2022-11-26T19:53:37.913Z,102311.16
2022-11-26T19:56:11.866Z,102313.97
2022-11-26T19:58:38.537Z,102316.00
2022-11-26T20:01:06.878Z,102314.25
2022-11-26T20:03:37.507Z,102312.13
2022-11-26T20:06:07.202Z,102305.75
2022-11-26T20:08:36.959Z,102308.66
2022-11-26T20:11:05.377Z,102301.72
2022-11-26T20:13:35.449Z,102301.72
2022-11-26T20:16:07.004Z,102307.13
2022-11-26T20:18:37.265Z,102317.22
2022-11-26T20:21:07.291Z,102313.84
2022-11-26T20:23:34.007Z,102312.91
2022-11-26T20:26:01.420Z,102314.44
2022-11-26T20:28:28.557Z,102317.31
2022-11-26T20:30:55.405Z,102319.94
2022-11-26T20:33:22.382Z,102318.28
2022-11-26T20:35:49.514Z,102319.25
2022-11-26T20:38:17.064Z,102317.69
2022-11-26T20:40:44.985Z,102319.25
2022-11-26T20:43:12.403Z,102327.16
2022-11-26T20:45:39.234Z,102328.81
2022-11-26T20:48:06.254Z,102327.06
2022-11-26T20:50:36.904Z,102327.84
2022-11-26T20:53:05.056Z,102323.31
2022-11-26T20:55:31.887Z,102327.66
2022-11-26T20:57:59.186Z,102324.28
2022-11-26T21:00:27.677Z,102330.34
2022-11-26T21:02:54.653Z,102332.66
2022-11-26T21:05:22.531Z,102326.78
2022-11-26T21:07:51.308Z,102330.44
2022-11-26T21:10:20.692Z,102322.81
2022-11-26T21:12:47.448Z,102332.75
2022-11-26T21:15:15.040Z,102334.28
2022-11-26T21:17:41.547Z,102329.09
2022-11-26T21:20:08.685Z,102327.06
2022-11-26T21:22:36.898Z,102328.63
2022-11-26T21:25:03.228Z,102326.88
2022-11-26T21:27:32.998Z,102329.56
2022-11-26T21:29:59.192Z,102318.59
2022-11-26T21:32:25.726Z,102318.88
2022-11-26T21:34:52.573Z,102321.38
2022-11-26T21:37:20.225Z,102317.03
2022-11-26T21:39:46.881Z,102324.38
2022-11-26T21:42:13.728Z,102328.72
2022-11-26T21:44:39.934Z,102330.19
2022-11-26T21:47:07.745Z,102325.63
2022-11-26T21:49:35.200Z,102332.38
2022-11-26T21:52:02.452Z,102340.19
2022-11-26T21:54:28.904Z,102328.25
2022-11-26T21:56:55.570Z,102331.91
2022-11-26T21:59:21.722Z,102332.66
2022-11-26T22:01:49.067Z,102332.00
2022-11-26T22:04:18.096Z,102333.06
2022-11-26T22:06:47.016Z,102339.81
2022-11-26T22:09:15.512Z,102342.31
2022-11-26T22:11:44.282Z,102331.41
2022-11-26T22:14:14.183Z,102336.34
2022-11-26T22:16:41.566Z,102342.22
2022-11-26T22:19:10.539Z,102346.84
2022-11-26T22:21:39.624Z,102343.00
2022-11-26T22:24:09.185Z,102339.81
2022-11-26T22:26:35.992Z,102340.09
2022-11-26T22:29:03.433Z,102337.88
2022-11-26T22:31:32.942Z,102325.84
2022-11-26T22:34:02.792Z,102322.75
2022-11-26T22:36:29.969Z,102318.91
2022-11-26T22:38:57.932Z,102322.84
2022-11-26T22:41:25.216Z,102324.19
2022-11-26T22:43:51.728Z,102321.22
2022-11-26T22:46:20.335Z,102320.91
2022-11-26T22:48:55.272Z,102320.16
2022-11-26T22:51:23.598Z,102310.31
2022-11-26T22:53:52.733Z,102317.53
2022-11-26T22:56:20.077Z,102309.06
2022-11-26T22:58:46.698Z,102311.28
2022-11-26T23:01:33.608Z,102311.94
2022-11-26T23:04:01.602Z,102309.44
2022-11-26T23:06:29.685Z,102297.69
2022-11-26T23:08:57.861Z,102303.84
2022-11-26T23:11:34.385Z,102312.16
2022-11-26T23:14:06.454Z,102311.75
2022-11-26T23:16:34.157Z,102297.69
2022-11-26T23:19:00.366Z,102310.13
2022-11-26T23:21:39.369Z,102300.38
2022-11-26T23:24:06.690Z,102302.88
2022-11-26T23:26:35.358Z,102303.25
2022-11-26T23:29:03.510Z,102301.72
2022-11-26T23:31:38.393Z,102307.31
2022-11-26T23:34:05.853Z,102300.84
2022-11-26T23:36:33.293Z,102304.41
2022-11-26T23:39:01.200Z,102308.28
2022-11-26T23:41:28.534Z,102304.50
2022-11-26T23:43:55.441Z,102295.75
2022-11-26T23:46:24.870Z,102297.19
2022-11-26T23:48:51.825Z,102307.72
2022-11-26T23:51:23.989Z,102302.22
2022-11-26T23:53:50.993Z,102302.50
2022-11-26T23:56:21.372Z,102300.00
2022-11-26T23:58:49.301Z,102308.47
